Portada
METAR-TAF:

METAR-TAF

Aeroports :

Teresina, Piauí, Brasil

latitud: 05-03S, longitud: 042-49W, altitud: 69 m

Observació

L'informe es va fer fa 20 minuts, a les 00:00 UTC
Vent calma
Temperatura 26°C
Humitat 54%
Pressió 1010 hPa
Visibilitat 10 km o més
sense núvols per sota de 1500 mi sense presència de cumulonimbus.

METAR: SBTE 130000Z 00000KT CAVOK 26/16 Q1010

Hora: 21:20 (00:20 UTC)

Pronòstic

L'informe es va fer fa 3 hores i 20 minuts, a les 21:00 UTC
Pronòstic vàlid del 13 a les 00 UTC al 13 a les 12 UTC
Vent 3 kt del Nord-Oest
Visibilitat 10 km o més
sense núvols per sota de 1500 mi sense presència de cumulonimbus.
Evolucionant progressivament
l' 13 a les 04 UTC al 13 a les 06 UTC
Vent kt del Nord
Evolucionant progressivament
l' 13 a les 11 UTC al 13 a les 12 UTC
Vent 8 kt del Sud/Sud-Est

TAF: SBTE 122100Z 1300/1312 32003KT CAVOK TN21/1309Z TX28/1312Z BECMG 1304/1306 00000KT BECMG 1311/1312 15008KT RMK PAY

Observacions i pronòstics meteorològics de més de 4000 aeroports (METAR i TAF).

Les estacions disponibles són els punts grocs i vermells al mapa.

Posi el ratolí al punt desitjat per veure el nom de l'estació.

Feu clic per veure les observacions i els pronòstics meteorològics.

Per canviar el mapa: feu clic els botons verds amb una creu de color negre per apropar; al botó verd amb un guió per allunyar la imatge; o en les fletxes verdes per a mapes adjacents.


METAR-TAF: